Aviation Digital Data Service (ADDS)

Output produced by TAFs form (1350 UTC 30 September 2014)
found at http://www.aviationweather.gov/adds/tafs/
 
KMRB 301301Z 3013/0112 00000KT 1/2SM FG VV001 
     FM301400 00000KT P6SM FEW050 SCT250 
     FM010000 00000KT 5SM BR BKN050 
     FM010600 00000KT P6SM BKN250